Newhall, West Virginia
Current Conditions -  °F | °C
As of 3:55 PM on Thursday 18 Dec 2014 (Local Time) from KJFZ Reporting Station
Overcast Overcast  
Wind Chill: 34°   Ceiling: 5500
Heat Index: 37°   Visibility: 10mi
Dew Point: 19°   Wind: 5mph
Humidity: 47%   Direction: 260°W
Pressure: 30.07"   Gusts: NA
Location:  37.26°N, 81.62°W
Report Text: KJFZ 182055Z AUTO 26004KT 10SM OVC055 03/M07 A3007 RMK AO2 T00291074
Loading
Personal Weather Stations






























Interactive Weather Map New forecast layout! Learn more

10-Day Weather Forecast

Advertisements
Track Severe Weather on mobile